Time;durP1;ratioP1;P1;durP2;ratioP2;P2;SDS_P1;SDS_P2;PMS_P1;PMS_P2;Temp;Humidity;BMP_temperature;BMP_pressure;BME280_temperature;BME280_humidity;BME280_pressure;Samples;Min_cycle;Max_cycle;Signal;HPM_P1;HPM_P2
2021/12/16 00:06:52;;;;;;;52.78;29.63;;;7.60;99.90;;;;;;5013066;28;20058;-59
2021/12/16 00:09:12;;;;;;;53.28;29.17;;;7.50;99.90;;;;;;5013038;28;20135;-60
2021/12/16 00:20:10;;;;;;;49.92;30.08;;;7.60;99.90;;;;;;5012375;28;20635;-60
2021/12/16 00:33:41;;;;;;;51.80;30.38;;;7.80;99.90;;;;;;5014332;28;20065;-60
2021/12/16 00:36:09;;;;;;;51.90;30.02;;;7.80;99.90;;;;;;5014673;28;20042;-60
2021/12/16 00:38:37;;;;;;;50.38;29.45;;;7.80;99.90;;;;;;5016038;28;20049;-60
2021/12/16 00:41:03;;;;;;;43.80;28.50;;;7.80;99.90;;;;;;4996543;28;20112;-59
2021/12/16 00:43:39;;;;;;;49.33;30.05;;;7.90;99.90;;;;;;5015740;28;20054;-60
2021/12/16 00:46:16;;;;;;;50.38;29.13;;;7.90;99.90;;;;;;5013746;28;20123;-60
2021/12/16 00:54:12;;;;;;;55.33;31.13;;;8.00;99.90;;;;;;5014547;28;20081;-59
2021/12/16 00:56:53;;;;;;;54.95;30.20;;;8.00;99.90;;;;;;5011278;28;20053;-59
2021/12/16 00:59:20;;;;;;;47.22;30.05;;;8.00;99.90;;;;;;5012068;28;20121;-60
2021/12/16 01:07:24;;;;;;;48.78;29.65;;;8.00;99.90;;;;;;5006176;28;20058;-60
2021/12/16 01:33:32;;;;;;;46.38;27.98;;;8.00;99.90;;;;;;4986187;28;20443;-60
2021/12/16 01:42:45;;;;;;;48.85;30.15;;;7.80;99.90;;;;;;5011478;28;20073;-58
2021/12/16 01:45:37;;;;;;;51.28;30.13;;;7.80;99.90;;;;;;5011670;28;20073;-59
2021/12/16 01:50:58;;;;;;;56.20;30.20;;;7.70;99.90;;;;;;5014350;28;20049;-59
2021/12/16 01:53:51;;;;;;;53.67;30.83;;;7.70;99.90;;;;;;5014459;28;20077;-59
2021/12/16 01:56:28;;;;;;;53.38;30.05;;;7.60;99.90;;;;;;5014280;28;20042;-60
2021/12/16 01:59:01;;;;;;;58.70;31.25;;;7.50;99.90;;;;;;5015336;28;20099;-59
2021/12/16 02:01:32;;;;;;;59.13;31.15;;;7.50;99.90;;;;;;5009232;28;20049;-60
2021/12/16 02:04:13;;;;;;;60.28;31.02;;;7.50;99.90;;;;;;4994293;28;20052;-60
2021/12/16 02:09:30;;;;;;;59.72;34.05;;;7.40;99.90;;;;;;5011138;28;20042;-59
2021/12/16 02:31:15;;;;;;;76.18;36.72;;;7.50;99.90;;;;;;5012968;28;20049;-58
2021/12/16 02:35:59;;;;;;;66.30;35.03;;;7.50;99.90;;;;;;5009396;28;20052;-59
2021/12/16 02:38:29;;;;;;;66.78;36.40;;;7.50;99.90;;;;;;5011713;28;20336;-59
2021/12/16 02:40:55;;;;;;;69.75;36.92;;;7.50;99.90;;;;;;5011882;28;20041;-59
2021/12/16 02:43:51;;;;;;;67.78;35.47;;;7.50;99.90;;;;;;5010057;28;20045;-60
2021/12/16 02:48:40;;;;;;;73.00;37.45;;;7.60;99.90;;;;;;5012644;28;20050;-60
2021/12/16 02:51:18;;;;;;;76.43;37.03;;;7.60;99.90;;;;;;5017508;28;20046;-59
2021/12/16 02:53:50;;;;;;;73.32;37.10;;;7.60;99.90;;;;;;5014754;28;20135;-59
2021/12/16 02:56:16;;;;;;;73.05;36.67;;;7.60;99.90;;;;;;5015840;28;20042;-59
2021/12/16 02:58:48;;;;;;;74.60;36.75;;;7.60;99.90;;;;;;5013631;28;20156;-59
2021/12/16 03:01:29;;;;;;;69.20;35.58;;;7.70;99.90;;;;;;5013477;28;20061;-59
2021/12/16 03:03:56;;;;;;;71.65;36.80;;;7.70;99.90;;;;;;5013596;28;20042;-60
2021/12/16 03:06:22;;;;;;;72.00;36.00;;;7.70;99.90;;;;;;5013970;28;20077;-59
2021/12/16 03:08:50;;;;;;;74.43;36.25;;;7.70;99.90;;;;;;4995471;28;20038;-59
2021/12/16 03:19:25;;;;;;;76.43;36.50;;;7.80;99.90;;;;;;5014615;28;20463;-60
2021/12/16 03:21:55;;;;;;;67.38;34.55;;;7.80;99.90;;;;;;5015481;28;20046;-59
2021/12/16 03:24:42;;;;;;;68.50;34.83;;;7.80;99.90;;;;;;5012358;28;20412;-60
2021/12/16 03:30:14;;;;;;;69.05;35.28;;;7.80;99.90;;;;;;5013001;28;20301;-60
2021/12/16 03:32:56;;;;;;;74.20;36.17;;;7.80;99.90;;;;;;5008017;28;20072;-60
2021/12/16 03:35:29;;;;;;;71.15;35.55;;;7.80;99.90;;;;;;5016133;28;20057;-59
2021/12/16 03:38:02;;;;;;;61.35;33.80;;;7.80;99.90;;;;;;5014865;28;20046;-60
2021/12/16 03:40:30;;;;;;;67.90;34.50;;;7.80;99.90;;;;;;5016399;28;20136;-59
2021/12/16 03:43:04;;;;;;;70.47;35.13;;;7.80;99.90;;;;;;5015478;28;20042;-59
2021/12/16 03:48:50;;;;;;;70.25;36.97;;;7.80;99.90;;;;;;5016709;28;20085;-59
2021/12/16 03:51:23;;;;;;;71.05;36.05;;;7.90;99.90;;;;;;5016113;28;20057;-60
2021/12/16 03:53:51;;;;;;;71.05;35.47;;;7.90;99.90;;;;;;5014716;28;20069;-60
2021/12/16 03:56:19;;;;;;;71.68;36.00;;;7.80;99.90;;;;;;4998377;28;20484;-60
2021/12/16 03:58:45;;;;;;;65.75;35.85;;;7.90;99.90;;;;;;5015776;28;20053;-59
2021/12/16 04:01:16;;;;;;;70.05;34.40;;;7.90;99.90;;;;;;5013694;28;20409;-59
2021/12/16 04:03:42;;;;;;;67.60;34.65;;;7.90;99.90;;;;;;5015126;28;20049;-60
2021/12/16 04:06:10;;;;;;;67.15;33.25;;;7.90;99.90;;;;;;5015820;28;20041;-59
2021/12/16 04:08:36;;;;;;;68.63;34.65;;;7.90;99.90;;;;;;5014704;28;20454;-59
2021/12/16 04:11:12;;;;;;;66.63;33.38;;;7.90;99.90;;;;;;5015766;28;20118;-60
2021/12/16 04:13:54;;;;;;;66.78;32.88;;;7.90;99.90;;;;;;5014847;28;20368;-60
2021/12/16 04:16:23;;;;;;;64.63;33.42;;;7.90;99.90;;;;;;5009467;28;20046;-60
2021/12/16 04:18:48;;;;;;;63.90;33.42;;;7.90;99.90;;;;;;5013189;28;20041;-60
2021/12/16 04:21:15;;;;;;;66.55;32.95;;;8.00;99.90;;;;;;5015962;28;20034;-60
2021/12/16 04:23:41;;;;;;;70.50;33.92;;;8.00;99.90;;;;;;5014117;28;20046;-59
2021/12/16 04:26:07;;;;;;;69.60;32.67;;;8.00;99.90;;;;;;5013131;28;20145;-59
2021/12/16 04:28:33;;;;;;;61.53;32.90;;;8.00;99.90;;;;;;4993930;28;20046;-60
2021/12/16 04:30:59;;;;;;;60.80;32.25;;;8.00;99.90;;;;;;5012943;28;20034;-60
2021/12/16 04:33:24;;;;;;;60.90;32.38;;;8.00;99.90;;;;;;5014384;28;20053;-60
2021/12/16 04:35:50;;;;;;;64.68;33.67;;;8.00;99.90;;;;;;5011838;28;20385;-59
2021/12/16 04:38:16;;;;;;;62.38;32.20;;;8.00;99.90;;;;;;5015229;28;20057;-59
2021/12/16 04:40:45;;;;;;;60.25;33.05;;;8.00;99.90;;;;;;5014838;28;20045;-60
2021/12/16 04:43:19;;;;;;;69.82;33.50;;;8.00;99.90;;;;;;5015380;28;20034;-59
2021/12/16 04:45:45;;;;;;;66.22;31.83;;;8.00;99.90;;;;;;5015549;28;20649;-60
2021/12/16 04:48:11;;;;;;;65.25;32.08;;;8.00;99.90;;;;;;5015597;28;20472;-60
2021/12/16 04:50:36;;;;;;;64.15;32.00;;;8.00;99.90;;;;;;5015736;28;20050;-59
2021/12/16 04:53:02;;;;;;;64.88;33.08;;;8.00;99.90;;;;;;5017136;28;20424;-59
2021/12/16 04:55:28;;;;;;;66.40;33.25;;;8.10;99.90;;;;;;5015260;28;20064;-59
2021/12/16 04:57:54;;;;;;;69.57;33.05;;;8.10;99.90;;;;;;5015063;28;20037;-59
2021/12/16 05:00:23;;;;;;;62.47;33.10;;;8.10;99.90;;;;;;5012598;28;20050;-59
2021/12/16 05:02:49;;;;;;;63.33;32.78;;;8.10;99.90;;;;;;5013153;28;20088;-60
2021/12/16 05:05:15;;;;;;;65.10;33.30;;;8.00;99.90;;;;;;5014508;28;20404;-58
2021/12/16 05:07:43;;;;;;;66.13;33.17;;;8.10;99.90;;;;;;5007580;28;20050;-59
2021/12/16 05:10:12;;;;;;;68.55;34.03;;;8.10;99.90;;;;;;5014489;28;20069;-60
2021/12/16 05:12:45;;;;;;;61.05;31.75;;;8.10;99.90;;;;;;5016580;28;20056;-59
2021/12/16 05:15:17;;;;;;;67.43;33.72;;;8.10;99.90;;;;;;5016904;28;20044;-59
2021/12/16 05:17:47;;;;;;;65.47;33.60;;;8.10;99.90;;;;;;5014119;28;20472;-59
2021/12/16 05:20:17;;;;;;;65.53;33.10;;;8.10;99.90;;;;;;5013510;28;20045;-60
2021/12/16 05:28:15;;;;;;;62.28;32.50;;;8.10;99.90;;;;;;5014792;28;20050;-58
2021/12/16 05:30:41;;;;;;;62.67;32.53;;;8.10;99.90;;;;;;5012769;28;20054;-58
2021/12/16 05:33:10;;;;;;;61.55;33.60;;;8.10;99.90;;;;;;5004669;28;20057;-58
2021/12/16 05:35:36;;;;;;;64.78;32.58;;;8.10;99.90;;;;;;5012103;28;20100;-57
2021/12/16 05:38:03;;;;;;;61.97;32.42;;;8.10;99.90;;;;;;5014821;28;20476;-58
2021/12/16 05:40:29;;;;;;;64.45;33.45;;;8.20;99.90;;;;;;5014655;28;20042;-58
2021/12/16 05:42:58;;;;;;;63.58;32.72;;;8.20;99.90;;;;;;5012490;28;20443;-58
2021/12/16 05:45:26;;;;;;;63.15;33.17;;;8.10;99.90;;;;;;5013136;28;20045;-58
2021/12/16 05:47:54;;;;;;;65.20;33.60;;;8.20;99.90;;;;;;5015886;28;20125;-58
2021/12/16 05:50:21;;;;;;;66.65;33.70;;;8.20;99.90;;;;;;5013907;28;20083;-58
2021/12/16 05:52:47;;;;;;;65.38;32.92;;;8.20;99.90;;;;;;5014211;28;20130;-58
2021/12/16 05:55:15;;;;;;;65.82;32.90;;;8.10;99.90;;;;;;5012497;28;20065;-58
2021/12/16 05:57:42;;;;;;;66.65;33.60;;;8.20;99.90;;;;;;5015518;28;20053;-58
2021/12/16 06:00:15;;;;;;;66.18;33.22;;;8.10;99.90;;;;;;5009039;28;20136;-58
2021/12/16 06:02:41;;;;;;;63.83;33.20;;;8.20;99.90;;;;;;5013093;28;20044;-58
2021/12/16 06:05:07;;;;;;;62.22;33.20;;;8.20;99.90;;;;;;5013505;28;20050;-58
2021/12/16 06:07:33;;;;;;;66.68;33.53;;;8.10;99.90;;;;;;5012833;28;20100;-58
2021/12/16 06:09:59;;;;;;;64.28;33.20;;;8.10;99.90;;;;;;5012911;28;20069;-58
2021/12/16 06:12:26;;;;;;;69.95;33.08;;;8.20;99.90;;;;;;5012406;28;20171;-58
2021/12/16 06:26:28;;;;;;;67.78;34.30;;;8.20;99.90;;;;;;5014942;28;20399;-59
2021/12/16 06:28:41;;;;;;;65.90;33.92;;;8.20;99.90;;;;;;5009895;28;20057;-59
2021/12/16 06:31:06;;;;;;;63.42;34.33;;;8.20;99.90;;;;;;4992426;28;20424;-58
2021/12/16 06:33:32;;;;;;;60.88;33.92;;;8.20;99.90;;;;;;5011223;28;20048;-58
2021/12/16 06:35:58;;;;;;;57.83;33.30;;;8.20;99.90;;;;;;5011092;28;20088;-58
2021/12/16 06:38:24;;;;;;;64.03;33.60;;;8.20;99.90;;;;;;5012428;28;20068;-58
2021/12/16 06:40:50;;;;;;;65.78;33.88;;;8.10;99.90;;;;;;5010785;28;20061;-58
2021/12/16 06:43:17;;;;;;;58.42;32.45;;;8.20;99.90;;;;;;5010010;28;20121;-58
2021/12/16 06:45:47;;;;;;;64.78;33.65;;;8.20;99.90;;;;;;5012862;28;20073;-56
2021/12/16 06:48:18;;;;;;;66.82;33.42;;;8.20;99.90;;;;;;5013681;28;20042;-58
2021/12/16 06:53:27;;;;;;;64.95;34.97;;;8.20;99.90;;;;;;5015597;28;20046;-58
2021/12/16 06:56:06;;;;;;;62.92;33.65;;;8.20;99.90;;;;;;5012879;28;20124;-58
2021/12/16 06:58:43;;;;;;;58.72;33.05;;;8.20;99.90;;;;;;5013749;28;20496;-58
2021/12/16 07:01:19;;;;;;;63.30;32.95;;;8.20;99.90;;;;;;5002668;28;20956;-58
2021/12/16 07:03:48;;;;;;;60.20;32.95;;;8.20;99.90;;;;;;4996704;28;20050;-58
2021/12/16 07:06:21;;;;;;;62.47;34.47;;;8.20;99.90;;;;;;5008734;28;20145;-57
2021/12/16 07:08:50;;;;;;;65.20;34.83;;;8.20;99.90;;;;;;5013417;28;20038;-58
2021/12/16 07:11:16;;;;;;;61.97;33.40;;;8.20;99.90;;;;;;5013317;28;20061;-58
2021/12/16 07:13:45;;;;;;;65.55;34.78;;;8.20;99.90;;;;;;5013768;28;20042;-58
2021/12/16 07:16:12;;;;;;;60.25;33.92;;;8.20;99.90;;;;;;5009464;28;20103;-58
2021/12/16 07:18:38;;;;;;;60.35;33.83;;;8.20;99.90;;;;;;5007505;28;20046;-59
2021/12/16 07:21:05;;;;;;;64.18;34.60;;;8.20;99.90;;;;;;5011693;28;20030;-58
2021/12/16 07:23:32;;;;;;;59.67;33.37;;;8.20;99.90;;;;;;5014324;28;20118;-58
2021/12/16 07:25:58;;;;;;;57.50;33.25;;;8.10;99.90;;;;;;5011090;28;20804;-58
2021/12/16 07:28:25;;;;;;;59.95;33.42;;;8.20;99.90;;;;;;5011717;28;20049;-58
2021/12/16 07:30:51;;;;;;;60.28;33.25;;;8.10;99.90;;;;;;5012199;28;20464;-58
2021/12/16 07:33:17;;;;;;;56.72;32.67;;;8.10;99.90;;;;;;5010086;28;20061;-58
2021/12/16 07:35:44;;;;;;;58.60;32.58;;;8.10;99.90;;;;;;5014645;28;20045;-59
2021/12/16 07:38:10;;;;;;;63.30;32.53;;;8.10;99.90;;;;;;5013398;28;20053;-58
2021/12/16 07:40:37;;;;;;;59.25;33.20;;;8.00;99.90;;;;;;5015966;28;20496;-58
2021/12/16 07:45:31;;;;;;;62.60;32.80;;;8.00;99.90;;;;;;5015273;28;20164;-58
2021/12/16 07:47:58;;;;;;;57.03;31.83;;;8.00;99.90;;;;;;5011809;28;20502;-58
2021/12/16 07:50:24;;;;;;;67.18;33.80;;;8.00;99.90;;;;;;5015334;28;20527;-57
2021/12/16 07:52:50;;;;;;;59.35;32.28;;;8.00;99.90;;;;;;5016163;28;20137;-57
2021/12/16 07:55:17;;;;;;;60.03;31.95;;;8.00;99.90;;;;;;5009551;28;20053;-58
2021/12/16 07:57:43;;;;;;;55.10;31.80;;;7.90;99.90;;;;;;5004306;28;20049;-58
2021/12/16 08:00:14;;;;;;;57.42;31.27;;;7.90;99.90;;;;;;5012595;28;20041;-58
2021/12/16 08:02:40;;;;;;;52.90;30.92;;;7.90;99.90;;;;;;5012033;28;20495;-58
2021/12/16 08:05:07;;;;;;;62.35;32.05;;;7.80;99.90;;;;;;5014758;28;20076;-58
2021/12/16 08:07:33;;;;;;;55.28;30.63;;;7.80;99.90;;;;;;5012258;28;20037;-58
2021/12/16 08:09:59;;;;;;;54.95;31.45;;;7.80;99.90;;;;;;5013998;28;20065;-58
2021/12/16 08:12:25;;;;;;;63.15;32.78;;;7.70;99.90;;;;;;5011587;28;20038;-58
2021/12/16 08:14:51;;;;;;;63.72;32.35;;;7.70;99.90;;;;;;5012580;28;20345;-58
2021/12/16 08:17:17;;;;;;;64.85;32.75;;;7.70;99.90;;;;;;5012940;28;20046;-58
2021/12/16 08:19:45;;;;;;;67.63;32.75;;;7.60;99.90;;;;;;5008529;28;20042;-58
2021/12/16 08:22:11;;;;;;;62.97;33.08;;;7.60;99.90;;;;;;5011495;28;20407;-58
2021/12/16 08:24:37;;;;;;;66.63;32.63;;;7.60;99.90;;;;;;5013565;28;20149;-58
2021/12/16 08:27:03;;;;;;;71.75;33.72;;;7.50;99.90;;;;;;5015299;28;20053;-58
2021/12/16 08:29:28;;;;;;;71.18;34.42;;;7.50;99.90;;;;;;5012682;28;20476;-58
2021/12/16 08:31:56;;;;;;;74.72;35.42;;;7.50;99.90;;;;;;4995166;28;20408;-58
2021/12/16 08:34:22;;;;;;;74.83;35.80;;;7.50;99.90;;;;;;5012325;28;20042;-57
2021/12/16 08:36:47;;;;;;;83.97;38.08;;;7.50;99.90;;;;;;4995283;28;20319;-58
2021/12/16 08:39:14;;;;;;;85.25;38.42;;;7.50;99.90;;;;;;5015362;28;20096;-58
2021/12/16 08:41:44;;;;;;;88.82;38.70;;;7.60;99.90;;;;;;5015143;28;20046;-58
2021/12/16 08:44:11;;;;;;;86.68;38.10;;;7.70;99.90;;;;;;5016288;28;20046;-58
2021/12/16 08:46:40;;;;;;;96.30;39.53;;;7.70;99.90;;;;;;5015941;28;20046;-58
2021/12/16 08:49:06;;;;;;;93.03;39.58;;;7.70;99.90;;;;;;5016856;28;20050;-58
2021/12/16 08:51:36;;;;;;;98.97;39.25;;;7.80;99.90;;;;;;5015353;28;20061;-58
2021/12/16 08:54:02;;;;;;;87.25;36.75;;;7.80;99.90;;;;;;5013964;28;20053;-59
2021/12/16 08:56:28;;;;;;;95.68;39.17;;;7.80;99.90;;;;;;5011432;28;20065;-57
2021/12/16 08:58:58;;;;;;;95.88;39.22;;;7.80;99.90;;;;;;5016137;28;20073;-58
2021/12/16 09:01:27;;;;;;;98.10;38.05;;;7.80;99.90;;;;;;5014250;28;20057;-58
2021/12/16 09:03:55;;;;;;;101.15;38.53;;;7.80;99.90;;;;;;5015852;28;20052;-58
2021/12/16 09:06:21;;;;;;;100.57;37.22;;;7.90;99.90;;;;;;5010125;28;20183;-58
2021/12/16 09:08:47;;;;;;;96.90;36.45;;;7.90;99.90;;;;;;5007315;28;20049;-58
2021/12/16 09:11:19;;;;;;;116.30;35.80;;;8.00;99.90;;;;;;5007714;28;20054;-59
2021/12/16 09:13:47;;;;;;;99.40;35.17;;;8.00;99.90;;;;;;5008665;28;20038;-58
2021/12/16 09:16:16;;;;;;;123.87;34.70;;;7.90;99.90;;;;;;5008566;28;20046;-58
2021/12/16 09:18:42;;;;;;;110.10;34.30;;;8.00;99.90;;;;;;5011794;28;20313;-59
2021/12/16 09:21:12;;;;;;;109.80;35.28;;;8.00;99.90;;;;;;5014885;28;20045;-58
2021/12/16 09:23:40;;;;;;;95.65;35.28;;;8.10;99.90;;;;;;5016102;28;20116;-58
2021/12/16 09:26:05;;;;;;;94.22;32.33;;;8.20;99.90;;;;;;5014435;28;20468;-58
2021/12/16 09:28:31;;;;;;;78.60;32.00;;;8.20;99.90;;;;;;5014990;28;20049;-59
2021/12/16 09:30:57;;;;;;;95.90;33.95;;;8.30;99.90;;;;;;5013413;28;20384;-58
2021/12/16 09:33:25;;;;;;;96.63;32.15;;;8.30;99.90;;;;;;5010121;28;20061;-58
2021/12/16 09:35:53;;;;;;;;;;;8.50;99.90;;;;;;5011648;28;20041;-56
2021/12/16 09:38:20;;;;;;;91.38;30.60;;;8.50;99.90;;;;;;5006252;28;20020;-58
2021/12/16 09:40:52;;;;;;;92.22;28.95;;;8.60;99.90;;;;;;5008669;28;20038;-58
2021/12/16 09:43:20;;;;;;;83.70;29.92;;;8.70;99.90;;;;;;5011919;28;20129;-58
2021/12/16 09:45:46;;;;;;;75.90;29.33;;;8.80;99.90;;;;;;4995027;28;20054;-58
2021/12/16 09:48:12;;;;;;;80.20;28.85;;;8.80;99.90;;;;;;5012884;28;20120;-58
2021/12/16 09:50:38;;;;;;;73.78;27.98;;;8.80;99.90;;;;;;5013358;28;20084;-58
2021/12/16 09:53:04;;;;;;;62.80;28.40;;;8.90;99.90;;;;;;5014011;28;20165;-58
2021/12/16 09:55:33;;;;;;;65.03;27.88;;;9.00;99.90;;;;;;5011055;28;20050;-58
2021/12/16 09:57:58;;;;;;;55.00;26.58;;;9.00;99.90;;;;;;5012890;28;20054;-58
2021/12/16 10:00:28;;;;;;;56.67;26.42;;;9.00;99.90;;;;;;5013319;28;20042;-58
2021/12/16 10:02:56;;;;;;;53.38;25.27;;;9.10;99.90;;;;;;5012116;28;20542;-58
2021/12/16 10:05:23;;;;;;;45.55;24.60;;;9.10;99.90;;;;;;5011839;28;20038;-58
2021/12/16 10:07:49;;;;;;;44.30;24.63;;;9.10;99.90;;;;;;5012420;28;20120;-58
2021/12/16 10:10:18;;;;;;;47.00;24.08;;;9.20;99.90;;;;;;5010549;28;20126;-58
2021/12/16 10:12:47;;;;;;;37.47;22.67;;;9.10;99.90;;;;;;5005220;28;20101;-58
2021/12/16 10:18:05;;;;;;;39.83;23.15;;;9.10;99.90;;;;;;5011036;28;20137;-58
2021/12/16 10:20:42;;;;;;;40.95;23.83;;;9.10;99.90;;;;;;5011793;28;20057;-58
2021/12/16 10:23:10;;;;;;;41.47;23.08;;;9.10;99.90;;;;;;5010863;28;20116;-58
2021/12/16 10:25:48;;;;;;;40.90;23.15;;;9.10;99.90;;;;;;5010509;28;20111;-57
2021/12/16 10:28:16;;;;;;;38.58;23.05;;;9.10;99.90;;;;;;5012248;28;20492;-59
2021/12/16 10:30:48;;;;;;;37.20;23.15;;;9.10;99.90;;;;;;5010085;28;20054;-60
2021/12/16 10:33:46;;;;;;;40.60;23.48;;;9.10;99.90;;;;;;5006733;28;20039;-58
2021/12/16 10:36:22;;;;;;;40.45;22.95;;;9.10;99.90;;;;;;4987461;28;20365;-60
2021/12/16 10:38:56;;;;;;;37.85;22.27;;;9.10;99.90;;;;;;5011193;28;20053;-60
2021/12/16 10:41:52;;;;;;;41.65;21.98;;;9.10;99.90;;;;;;5009636;28;20050;-59
2021/12/16 10:44:20;;;;;;;41.70;22.20;;;9.10;99.90;;;;;;5007968;28;20092;-59
2021/12/16 10:47:00;;;;;;;;;;;9.10;99.90;;;;;;5012915;28;20030;-59
2021/12/16 10:49:32;;;;;;;48.80;22.55;;;9.10;99.90;;;;;;5013092;28;19928;-58
2021/12/16 10:52:05;;;;;;;45.03;21.95;;;9.10;99.90;;;;;;5010008;28;20236;-59
2021/12/16 10:54:38;;;;;;;39.63;22.13;;;9.10;99.90;;;;;;5011825;28;20522;-59
2021/12/16 10:57:13;;;;;;;39.03;22.73;;;9.10;99.90;;;;;;5009169;28;20049;-59
2021/12/16 10:59:46;;;;;;;36.97;21.63;;;9.10;99.90;;;;;;5009512;28;20046;-59
2021/12/16 11:02:28;;;;;;;37.95;23.27;;;9.10;99.90;;;;;;5010016;28;20046;-58
2021/12/16 11:05:00;;;;;;;43.58;22.23;;;9.10;99.90;;;;;;5010984;28;20045;-59
2021/12/16 11:07:32;;;;;;;37.83;21.58;;;9.10;99.90;;;;;;5009208;28;20042;-60
2021/12/16 11:09:57;;;;;;;42.00;22.73;;;9.10;99.90;;;;;;5010097;28;20425;-60
2021/12/16 11:12:25;;;;;;;40.25;22.73;;;9.10;99.90;;;;;;5013738;28;20081;-59
2021/12/16 11:14:52;;;;;;;39.55;22.25;;;9.10;99.90;;;;;;5011383;28;20046;-59
2021/12/16 11:17:20;;;;;;;42.20;23.95;;;9.10;99.90;;;;;;5010830;28;20054;-59
2021/12/16 11:19:51;;;;;;;39.15;22.58;;;9.10;99.90;;;;;;5014394;28;20050;-59
2021/12/16 11:22:23;;;;;;;43.58;22.77;;;9.10;99.90;;;;;;5015385;28;20152;-59
2021/12/16 11:24:49;;;;;;;40.25;22.20;;;9.00;99.90;;;;;;5011517;28;20056;-59
2021/12/16 11:27:34;;;;;;;43.38;23.60;;;9.00;99.90;;;;;;5009732;28;20113;-59
2021/12/16 11:30:19;;;;;;;37.92;23.10;;;9.10;99.90;;;;;;5013084;28;20053;-59
2021/12/16 11:32:48;;;;;;;40.45;24.13;;;9.10;99.90;;;;;;5011577;28;20081;-59
2021/12/16 11:35:41;;;;;;;43.80;23.70;;;9.00;99.90;;;;;;5013803;28;20145;-59
2021/12/16 11:38:14;;;;;;;40.70;23.70;;;9.10;99.90;;;;;;5011192;28;20053;-60
2021/12/16 11:41:06;;;;;;;47.20;25.23;;;9.10;99.90;;;;;;5012046;28;20475;-60
2021/12/16 11:43:36;;;;;;;41.58;24.75;;;9.10;99.90;;;;;;5011788;28;21013;-59
2021/12/16 11:46:05;;;;;;;49.80;25.52;;;9.10;99.90;;;;;;5012196;28;20107;-59
2021/12/16 11:48:35;;;;;;;45.65;25.27;;;9.10;99.90;;;;;;5011801;28;20064;-59
2021/12/16 11:51:05;;;;;;;50.85;24.48;;;9.10;99.90;;;;;;5012386;28;20518;-59
2021/12/16 11:53:43;;;;;;;47.10;24.33;;;9.10;99.90;;;;;;5011475;28;20050;-59
2021/12/16 11:56:11;;;;;;;;;;;9.10;99.90;;;;;;5011261;28;20086;-60
2021/12/16 11:58:38;;;;;;;;;;;9.10;99.90;;;;;;5011688;28;19925;-60
2021/12/16 12:01:18;;;;;;;50.53;26.33;;;9.10;99.90;;;;;;5011890;28;19928;-59
2021/12/16 12:03:44;;;;;;;45.55;25.63;;;9.10;99.90;;;;;;5010892;28;20045;-59
2021/12/16 12:06:27;;;;;;;42.17;24.45;;;9.10;99.90;;;;;;5014233;28;20145;-59
2021/12/16 12:08:54;;;;;;;44.08;24.85;;;9.10;99.90;;;;;;5013317;28;20138;-59
2021/12/16 12:11:30;;;;;;;47.30;25.38;;;9.20;99.90;;;;;;5030294;28;20041;-59
2021/12/16 12:14:08;;;;;;;44.90;25.27;;;9.20;99.90;;;;;;5021750;28;20049;-58
2021/12/16 12:16:40;;;;;;;49.08;25.15;;;9.20;99.90;;;;;;5013046;28;20368;-59
2021/12/16 12:19:14;;;;;;;52.53;26.15;;;9.20;99.90;;;;;;5013151;28;20182;-58
2021/12/16 12:21:45;;;;;;;52.45;24.67;;;9.20;99.90;;;;;;5011604;28;20092;-60
2021/12/16 12:24:19;;;;;;;44.70;25.05;;;9.20;99.90;;;;;;5010106;28;20033;-58
2021/12/16 12:27:11;;;;;;;50.42;25.92;;;9.20;99.90;;;;;;5009577;28;20049;-60
2021/12/16 12:29:40;;;;;;;46.45;25.10;;;9.20;99.90;;;;;;5011750;28;21217;-60
2021/12/16 12:32:14;;;;;;;47.25;24.58;;;9.20;99.90;;;;;;5005694;28;20112;-59
2021/12/16 12:34:49;;;;;;;47.88;25.33;;;9.20;99.90;;;;;;5015314;28;20257;-60
2021/12/16 12:37:18;;;;;;;54.08;25.20;;;9.20;99.90;;;;;;5010145;28;20033;-59
2021/12/16 12:39:47;;;;;;;45.42;24.75;;;9.20;99.90;;;;;;4996068;28;20151;-59
2021/12/16 12:42:14;;;;;;;46.03;23.55;;;9.30;99.90;;;;;;5013678;28;20053;-59
2021/12/16 12:44:41;;;;;;;49.20;24.98;;;9.40;99.90;;;;;;5013195;28;20523;-59
2021/12/16 12:47:13;;;;;;;44.53;24.17;;;9.30;99.90;;;;;;5012766;28;20479;-60
2021/12/16 12:49:38;;;;;;;48.63;24.35;;;9.30;99.90;;;;;;5011590;28;20062;-60
2021/12/16 12:52:17;;;;;;;48.20;25.08;;;9.30;99.90;;;;;;5013776;28;20064;-58
2021/12/16 12:55:05;;;;;;;43.35;24.95;;;9.30;99.90;;;;;;5014037;28;20049;-59
2021/12/16 12:57:36;;;;;;;52.67;25.17;;;9.30;99.90;;;;;;5011286;28;20060;-59
2021/12/16 13:00:24;;;;;;;45.30;24.23;;;9.30;99.90;;;;;;5013374;28;20042;-59
2021/12/16 13:02:59;;;;;;;48.80;23.10;;;9.30;99.90;;;;;;5003192;28;20480;-59
2021/12/16 13:05:25;;;;;;;47.03;23.58;;;9.20;99.90;;;;;;5013183;28;20504;-59
2021/12/16 13:08:02;;;;;;;48.63;23.60;;;9.20;99.90;;;;;;5012873;28;20038;-59
2021/12/16 13:10:35;;;;;;;44.55;23.33;;;9.20;99.90;;;;;;5009119;28;20060;-60
2021/12/16 13:16:00;;;;;;;47.95;22.90;;;9.20;99.90;;;;;;5009252;28;20057;-59
2021/12/16 13:24:33;;;;;;;51.83;24.67;;;9.20;99.90;;;;;;4941245;29;20113;-60
2021/12/16 13:27:06;;;;;;;53.97;23.17;;;9.20;99.90;;;;;;4950184;28;20516;-59
2021/12/16 13:29:39;;;;;;;48.08;23.38;;;9.10;99.90;;;;;;4929405;29;20101;-59
2021/12/16 13:32:12;;;;;;;54.20;24.52;;;9.10;99.90;;;;;;4944420;28;20043;-60
2021/12/16 13:35:21;;;;;;;53.10;25.95;;;9.20;99.90;;;;;;4950309;29;20058;-59
2021/12/16 13:37:51;;;;;;;49.92;24.45;;;9.10;99.90;;;;;;4950365;29;20058;-59
2021/12/16 13:40:16;;;;;;;57.15;24.00;;;9.10;99.90;;;;;;4951531;29;20446;-59
2021/12/16 13:42:54;;;;;;;50.58;24.30;;;9.10;99.90;;;;;;4944769;29;20098;-59
2021/12/16 13:45:35;;;;;;;;;;;9.10;99.90;;;;;;4952491;29;20493;-59
2021/12/16 14:05:19;;;;;;;44.42;21.90;;;9.00;99.90;;;;;;4970645;28;20520;-59
2021/12/16 14:08:00;;;;;;;54.70;23.95;;;8.90;99.90;;;;;;4971405;28;20043;-59
2021/12/16 14:10:42;;;;;;;59.40;23.52;;;8.90;99.90;;;;;;4971143;28;20512;-59
2021/12/16 14:24:43;;;;;;;57.03;23.35;;;8.80;99.90;;;;;;4971167;28;20158;-60
2021/12/16 14:27:18;;;;;;;48.53;23.15;;;8.80;99.90;;;;;;4951913;29;20047;-59
2021/12/16 14:35:03;;;;;;;57.38;23.58;;;8.80;99.90;;;;;;4957211;28;20038;-59
2021/12/16 14:37:33;;;;;;;53.17;24.23;;;8.80;99.90;;;;;;4971130;28;20054;-59
2021/12/16 14:45:28;;;;;;;55.58;24.67;;;8.80;99.90;;;;;;5011983;28;20078;-58
2021/12/16 14:48:10;;;;;;;54.10;23.48;;;8.70;99.90;;;;;;5012989;28;20369;-59
2021/12/16 14:50:45;;;;;;;57.53;24.05;;;8.70;99.90;;;;;;5012597;28;20127;-59
2021/12/16 14:53:16;;;;;;;52.42;22.83;;;8.70;99.90;;;;;;4992872;28;20093;-59
2021/12/16 14:55:41;;;;;;;51.42;22.80;;;8.70;99.90;;;;;;4998174;28;20038;-59
2021/12/16 14:58:07;;;;;;;52.80;23.75;;;8.70;99.90;;;;;;5011788;28;20046;-59
2021/12/16 15:00:45;;;;;;;46.72;22.63;;;8.70;99.90;;;;;;5012174;28;20499;-58
2021/12/16 15:03:14;;;;;;;56.45;24.52;;;8.70;99.90;;;;;;5013173;28;20096;-59
2021/12/16 15:05:45;;;;;;;49.70;24.15;;;8.70;99.90;;;;;;4994567;28;20053;-59
2021/12/16 15:08:24;;;;;;;54.60;24.02;;;8.70;99.90;;;;;;5012690;28;20057;-59
2021/12/16 15:10:50;;;;;;;51.95;24.02;;;8.70;99.90;;;;;;5011867;28;20072;-58
2021/12/16 15:13:29;;;;;;;69.30;24.25;;;8.70;99.90;;;;;;5012422;28;20395;-58
2021/12/16 15:42:57;;;;;;;83.80;26.55;;;8.50;99.90;;;;;;5012119;28;20050;-57
2021/12/16 15:45:36;;;;;;;79.28;27.38;;;8.50;99.90;;;;;;5011401;28;20156;-58
2021/12/16 15:48:13;;;;;;;63.30;25.27;;;8.50;99.90;;;;;;5010238;28;20468;-58
2021/12/16 15:51:09;;;;;;;67.72;26.77;;;8.40;99.90;;;;;;5009183;28;20052;-57
2021/12/16 15:53:40;;;;;;;104.15;28.15;;;8.40;99.90;;;;;;4994513;28;20076;-57
2021/12/16 15:56:10;;;;;;;94.40;26.23;;;8.40;99.90;;;;;;5011698;28;20042;-58
2021/12/16 15:58:58;;;;;;;100.03;24.88;;;8.40;99.90;;;;;;5014601;28;20037;-57
2021/12/16 16:01:31;;;;;;;85.28;23.02;;;8.30;99.90;;;;;;5015398;28;20046;-58
2021/12/16 16:03:59;;;;;;;98.97;24.95;;;8.30;99.90;;;;;;5016688;28;20109;-57
2021/12/16 16:06:25;;;;;;;98.57;25.00;;;8.30;99.90;;;;;;5015296;28;20056;-57
2021/12/16 16:08:54;;;;;;;83.65;24.27;;;8.20;99.90;;;;;;5016811;28;20065;-58
2021/12/16 16:11:30;;;;;;;87.40;24.27;;;8.20;99.90;;;;;;5012686;28;20057;-57
2021/12/16 16:14:02;;;;;;;86.22;25.13;;;8.20;99.90;;;;;;5017682;28;20107;-57
2021/12/16 16:16:36;;;;;;;138.07;25.15;;;8.20;99.90;;;;;;5016445;28;20145;-58
2021/12/16 16:19:04;;;;;;;88.95;24.67;;;8.10;99.90;;;;;;5016935;28;20088;-58
2021/12/16 16:21:34;;;;;;;89.10;24.30;;;8.10;99.90;;;;;;5016587;28;20042;-58
2021/12/16 16:24:07;;;;;;;102.78;24.15;;;8.10;99.90;;;;;;5016454;28;20376;-57
2021/12/16 16:26:33;;;;;;;91.82;24.27;;;8.10;99.90;;;;;;5015639;28;20500;-56